Time;durP1;ratioP1;P1;durP2;ratioP2;P2;SDS_P1;SDS_P2;PMS_P1;PMS_P2;Temp;Humidity;BMP_temperature;BMP_pressure;BME280_temperature;BME280_humidity;BME280_pressure;Samples;Min_cycle;Max_cycle;Signal;HPM_P1;HPM_P2
2021/10/22 00:00:08;;;;;;;11.55;1.55;;;8.90;94.60;;;;;;5053388;28;20037;-74
2021/10/22 00:02:35;;;;;;;12.25;1.88;;;9.00;94.60;;;;;;5051791;28;20037;-74
2021/10/22 00:05:00;;;;;;;11.45;1.70;;;8.90;94.50;;;;;;5053191;28;20033;-74
2021/10/22 00:07:26;;;;;;;10.30;2.17;;;8.90;94.50;;;;;;5053237;28;20352;-75
2021/10/22 00:09:51;;;;;;;11.85;1.60;;;8.90;94.60;;;;;;5053445;28;20648;-75
2021/10/22 00:12:17;;;;;;;9.65;1.20;;;8.70;94.80;;;;;;5053117;28;20040;-75
2021/10/22 00:14:43;;;;;;;11.25;2.08;;;8.80;94.70;;;;;;5053339;28;20033;-75
2021/10/22 00:17:09;;;;;;;11.25;1.70;;;8.90;94.60;;;;;;5053095;28;20120;-75
2021/10/22 00:19:36;;;;;;;11.32;1.60;;;8.80;94.60;;;;;;5053193;28;20032;-75
2021/10/22 00:22:02;;;;;;;5.53;1.30;;;8.80;94.70;;;;;;5051896;28;20115;-73
2021/10/22 00:24:28;;;;;;;15.57;1.70;;;8.90;94.60;;;;;;5051939;28;20036;-72
2021/10/22 00:26:54;;;;;;;15.35;2.10;;;8.90;94.40;;;;;;5052823;28;20021;-74
2021/10/22 00:29:19;;;;;;;12.05;1.75;;;8.90;94.40;;;;;;5052893;28;20463;-75
2021/10/22 00:31:45;;;;;;;20.00;2.08;;;8.90;94.50;;;;;;5052911;28;20029;-74
2021/10/22 00:34:10;;;;;;;14.40;2.75;;;8.80;94.60;;;;;;5053279;28;20040;-75
2021/10/22 00:36:37;;;;;;;17.35;2.15;;;8.90;94.60;;;;;;5053379;28;20156;-75
2021/10/22 00:39:03;;;;;;;14.55;1.50;;;8.90;94.40;;;;;;5053169;28;20707;-74
2021/10/22 00:41:29;;;;;;;15.82;2.13;;;8.90;94.50;;;;;;5051692;28;20421;-74
2021/10/22 00:43:55;;;;;;;12.18;1.60;;;9.00;94.50;;;;;;5051677;28;20135;-74
2021/10/22 00:46:24;;;;;;;15.95;1.65;;;9.00;94.40;;;;;;5052881;28;20032;-74
2021/10/22 00:48:50;;;;;;;10.18;2.13;;;9.00;94.40;;;;;;5052882;28;20041;-74
2021/10/22 00:51:16;;;;;;;11.20;1.70;;;9.00;94.40;;;;;;5052234;28;20052;-74
2021/10/22 00:53:42;;;;;;;10.35;1.48;;;9.00;94.30;;;;;;5052486;28;20028;-75
2021/10/22 00:56:09;;;;;;;11.68;1.30;;;8.90;94.30;;;;;;5052322;28;20044;-75
2021/10/22 00:58:37;;;;;;;12.10;1.95;;;9.00;94.40;;;;;;5052265;28;20400;-75
2021/10/22 01:01:03;;;;;;;10.25;1.30;;;9.00;94.20;;;;;;5052655;28;20029;-74
2021/10/22 01:03:28;;;;;;;11.07;1.48;;;9.00;94.40;;;;;;5052297;28;20486;-75
2021/10/22 01:05:54;;;;;;;9.05;1.35;;;9.00;94.20;;;;;;5052145;28;20036;-75
2021/10/22 01:08:20;;;;;;;15.00;2.28;;;9.00;94.30;;;;;;5052162;28;20037;-73
2021/10/22 01:10:46;;;;;;;7.95;1.23;;;9.00;94.30;;;;;;5051965;28;20405;-75
2021/10/22 01:13:12;;;;;;;14.63;1.48;;;9.00;94.20;;;;;;5050368;28;20579;-73
2021/10/22 01:15:37;;;;;;;15.00;1.50;;;9.00;94.30;;;;;;5051773;28;20025;-73
2021/10/22 01:18:03;;;;;;;12.60;1.30;;;9.10;94.30;;;;;;5051960;28;20036;-74
2021/10/22 01:20:29;;;;;;;9.95;1.60;;;9.00;94.20;;;;;;5051933;28;20094;-75
2021/10/22 01:22:55;;;;;;;10.00;1.38;;;9.00;94.30;;;;;;5052192;28;20063;-76
2021/10/22 01:25:24;;;;;;;12.43;2.60;;;9.00;94.40;;;;;;5052174;28;20024;-75
2021/10/22 01:27:51;;;;;;;8.68;1.38;;;9.00;94.40;;;;;;5051355;28;20029;-75
2021/10/22 01:30:21;;;;;;;7.68;1.35;;;9.00;94.40;;;;;;5051333;28;20043;-75
2021/10/22 01:32:50;;;;;;;10.60;1.45;;;9.00;94.50;;;;;;5050900;28;20480;-74
2021/10/22 01:35:15;;;;;;;12.02;1.73;;;9.00;94.50;;;;;;5046514;28;20517;-75
2021/10/22 01:37:41;;;;;;;10.43;1.80;;;8.80;94.60;;;;;;5031871;28;20287;-75
2021/10/22 01:40:07;;;;;;;10.48;1.70;;;8.80;94.70;;;;;;5031896;28;20029;-75
2021/10/22 01:42:34;;;;;;;12.00;2.15;;;8.80;94.70;;;;;;5030721;28;20326;-74
2021/10/22 01:45:00;;;;;;;8.77;1.23;;;8.80;94.80;;;;;;5031328;28;20033;-74
2021/10/22 01:47:25;;;;;;;9.20;1.75;;;8.70;94.80;;;;;;5030406;28;20033;-74
2021/10/22 01:49:52;;;;;;;7.10;1.30;;;8.70;94.90;;;;;;5031604;28;20348;-74
2021/10/22 01:52:18;;;;;;;8.43;1.30;;;8.80;94.90;;;;;;5031817;28;20455;-74
2021/10/22 01:54:44;;;;;;;10.02;1.45;;;8.80;94.90;;;;;;5031586;28;20355;-75
2021/10/22 01:57:12;;;;;;;10.40;1.42;;;8.70;95.10;;;;;;5031326;28;20040;-74
2021/10/22 01:59:38;;;;;;;11.88;1.55;;;8.70;95.10;;;;;;5031571;28;20095;-75
2021/10/22 02:02:05;;;;;;;6.28;1.80;;;8.70;95.10;;;;;;5031320;28;20029;-75
2021/10/22 02:04:31;;;;;;;19.73;2.33;;;8.70;94.90;;;;;;5031346;28;20025;-76
2021/10/22 02:06:58;;;;;;;9.57;1.10;;;8.70;94.90;;;;;;5031917;28;20029;-76
2021/10/22 02:09:23;;;;;;;9.90;1.92;;;8.80;94.80;;;;;;5031213;28;20141;-75
2021/10/22 02:11:49;;;;;;;15.45;1.77;;;8.80;94.70;;;;;;5031098;28;20387;-75
2021/10/22 02:14:15;;;;;;;7.85;1.42;;;8.90;94.70;;;;;;5031094;28;20120;-75
2021/10/22 02:16:42;;;;;;;9.00;1.83;;;8.80;94.70;;;;;;5031323;28;20037;-75
2021/10/22 02:19:07;;;;;;;10.57;1.33;;;8.80;94.70;;;;;;5030832;28;20624;-75
2021/10/22 02:21:33;;;;;;;14.48;2.25;;;8.80;94.80;;;;;;5030970;28;20029;-75
2021/10/22 02:23:59;;;;;;;15.48;1.80;;;8.80;94.80;;;;;;5032042;28;20032;-75
2021/10/22 02:26:24;;;;;;;12.82;1.75;;;8.70;94.70;;;;;;5037867;28;20028;-75
2021/10/22 02:28:50;;;;;;;12.23;1.67;;;8.70;94.90;;;;;;5037948;28;20026;-74
2021/10/22 02:31:16;;;;;;;10.20;1.85;;;8.70;94.90;;;;;;5038088;28;20036;-74
2021/10/22 02:33:41;;;;;;;8.52;1.73;;;8.60;94.90;;;;;;5037509;28;20037;-74
2021/10/22 02:36:07;;;;;;;8.88;1.38;;;8.70;95.00;;;;;;5037402;28;20033;-74
2021/10/22 02:38:33;;;;;;;11.10;1.50;;;8.70;94.80;;;;;;5037734;28;20029;-74
2021/10/22 02:40:58;;;;;;;9.55;1.25;;;8.70;94.80;;;;;;5037609;28;20507;-73
2021/10/22 02:43:24;;;;;;;10.48;1.20;;;8.80;94.80;;;;;;5037963;28;20040;-73
2021/10/22 02:45:50;;;;;;;7.18;1.67;;;8.70;94.70;;;;;;5037747;28;20049;-73
2021/10/22 02:48:16;;;;;;;12.57;1.48;;;8.70;94.80;;;;;;5037428;28;20033;-74
2021/10/22 02:50:41;;;;;;;11.93;1.58;;;8.70;94.80;;;;;;5037620;28;20083;-73
2021/10/22 02:53:07;;;;;;;11.75;1.48;;;8.70;94.80;;;;;;5037545;28;20030;-74
2021/10/22 02:55:33;;;;;;;15.35;2.95;;;8.70;94.90;;;;;;5036434;28;20017;-74
2021/10/22 02:57:58;;;;;;;11.77;1.38;;;8.60;94.90;;;;;;5037882;28;20126;-72
2021/10/22 03:00:24;;;;;;;13.05;1.65;;;8.60;94.90;;;;;;5037424;28;20472;-73
2021/10/22 03:02:50;;;;;;;7.88;1.80;;;8.60;94.90;;;;;;5037746;28;20036;-73
2021/10/22 03:05:16;;;;;;;20.02;1.73;;;8.60;95.00;;;;;;5037379;28;20202;-73
2021/10/22 03:07:41;;;;;;;11.77;1.90;;;8.60;94.90;;;;;;5037491;28;20040;-74
2021/10/22 03:10:09;;;;;;;12.48;1.30;;;8.70;94.90;;;;;;5037443;28;20032;-73
2021/10/22 03:12:35;;;;;;;14.48;1.45;;;8.70;94.80;;;;;;5036073;28;20284;-74
2021/10/22 03:15:02;;;;;;;10.35;1.83;;;8.70;94.80;;;;;;5037392;28;20033;-74
2021/10/22 03:17:28;;;;;;;12.93;1.57;;;8.70;94.80;;;;;;5036980;28;20037;-74
2021/10/22 03:19:54;;;;;;;10.95;1.60;;;8.60;94.80;;;;;;5037237;28;20365;-73
2021/10/22 03:22:19;;;;;;;12.43;1.50;;;8.60;94.90;;;;;;5037611;28;20095;-74
2021/10/22 03:24:45;;;;;;;11.50;1.33;;;8.60;94.90;;;;;;5037161;28;20025;-73
2021/10/22 03:27:12;;;;;;;11.43;1.40;;;8.60;94.80;;;;;;5036923;28;20057;-72
2021/10/22 03:29:38;;;;;;;21.08;1.83;;;8.50;94.90;;;;;;5037047;28;20030;-75
2021/10/22 03:32:05;;;;;;;14.60;1.52;;;8.60;94.90;;;;;;5036854;28;20057;-73
2021/10/22 03:34:31;;;;;;;11.00;2.15;;;8.60;94.80;;;;;;5036797;28;20029;-74
2021/10/22 03:36:56;;;;;;;12.27;1.75;;;8.60;94.70;;;;;;5034494;28;20221;-73
2021/10/22 03:39:22;;;;;;;16.38;2.30;;;8.60;94.80;;;;;;5033657;28;20036;-73
2021/10/22 03:41:48;;;;;;;13.38;1.70;;;8.60;94.70;;;;;;5033886;28;20034;-74
2021/10/22 03:44:13;;;;;;;11.90;1.63;;;8.70;94.70;;;;;;5033547;28;20058;-74
2021/10/22 03:46:39;;;;;;;8.50;1.60;;;8.60;94.70;;;;;;5033776;28;20029;-73
2021/10/22 03:49:05;;;;;;;10.57;1.55;;;8.60;94.70;;;;;;5034344;28;20029;-74
2021/10/22 03:51:31;;;;;;;16.75;2.10;;;8.70;94.60;;;;;;5033698;28;20053;-75
2021/10/22 03:53:56;;;;;;;9.80;2.03;;;8.70;94.60;;;;;;5033826;28;20582;-75
2021/10/22 03:56:22;;;;;;;11.38;1.77;;;8.70;94.60;;;;;;5032646;28;20363;-74
2021/10/22 03:58:47;;;;;;;14.18;2.08;;;8.70;94.70;;;;;;5033260;28;20379;-73
2021/10/22 04:01:14;;;;;;;18.42;2.42;;;8.60;94.60;;;;;;5034103;28;20116;-74
2021/10/22 04:03:39;;;;;;;14.20;1.98;;;8.70;94.60;;;;;;5033406;28;20116;-74
2021/10/22 04:06:05;;;;;;;10.75;1.90;;;8.70;94.60;;;;;;5032532;28;20057;-74
2021/10/22 04:08:31;;;;;;;8.40;1.75;;;8.70;94.50;;;;;;5033052;28;20112;-73
2021/10/22 04:10:57;;;;;;;12.13;2.20;;;8.70;94.50;;;;;;5032226;28;20533;-74
2021/10/22 04:13:23;;;;;;;16.13;1.85;;;8.70;94.50;;;;;;5033596;28;20026;-75
2021/10/22 04:15:48;;;;;;;16.65;2.97;;;8.70;94.60;;;;;;5033520;28;20048;-74
2021/10/22 04:18:15;;;;;;;7.05;1.50;;;8.70;94.50;;;;;;5033442;28;20096;-76
2021/10/22 04:20:41;;;;;;;13.48;2.20;;;8.70;94.60;;;;;;5031888;28;20459;-76
2021/10/22 04:23:07;;;;;;;10.85;2.30;;;8.80;94.50;;;;;;5031927;28;20025;-74
2021/10/22 04:25:34;;;;;;;12.25;2.15;;;8.80;94.50;;;;;;5032904;28;20053;-75
2021/10/22 04:28:00;;;;;;;9.43;1.67;;;8.80;94.40;;;;;;5033412;28;20087;-74
2021/10/22 04:30:26;;;;;;;17.13;2.42;;;8.80;94.30;;;;;;5031849;28;20095;-74
2021/10/22 04:32:51;;;;;;;12.32;2.17;;;8.80;94.60;;;;;;5031808;28;20029;-75
2021/10/22 04:35:17;;;;;;;14.73;2.45;;;8.90;94.30;;;;;;5032960;28;20049;-74
2021/10/22 04:37:50;;;;;;;10.32;1.80;;;8.90;94.30;;;;;;5031498;28;20033;-74
2021/10/22 04:40:35;;;;;;;11.70;1.95;;;8.90;94.20;;;;;;5033498;28;20043;-73
2021/10/22 04:43:06;;;;;;;10.30;1.90;;;9.00;94.20;;;;;;5032676;28;20056;-75
2021/10/22 04:45:34;;;;;;;15.48;2.00;;;9.00;94.10;;;;;;5032844;28;20049;-74
2021/10/22 04:48:01;;;;;;;12.65;2.67;;;9.00;94.10;;;;;;5032769;28;20033;-74
2021/10/22 04:50:28;;;;;;;20.30;3.80;;;9.00;94.10;;;;;;5032349;28;20038;-74
2021/10/22 04:52:55;;;;;;;13.90;2.30;;;9.00;94.00;;;;;;5031640;28;20037;-75
2021/10/22 04:55:22;;;;;;;13.90;2.58;;;9.00;94.00;;;;;;5032913;28;20033;-74
2021/10/22 04:57:49;;;;;;;19.65;2.38;;;9.00;94.00;;;;;;5032271;28;20096;-75
2021/10/22 05:00:15;;;;;;;18.23;2.70;;;9.00;93.90;;;;;;5031019;28;20352;-74
2021/10/22 05:02:40;;;;;;;14.73;2.85;;;9.10;94.00;;;;;;5031293;28;20454;-76
2021/10/22 05:05:06;;;;;;;11.98;2.13;;;9.00;94.00;;;;;;5032211;28;20091;-74
2021/10/22 05:07:32;;;;;;;19.30;3.00;;;9.00;93.90;;;;;;5032079;28;20342;-75
2021/10/22 05:09:58;;;;;;;14.82;2.60;;;9.10;94.00;;;;;;5031549;28;20053;-76
2021/10/22 05:12:24;;;;;;;14.88;2.53;;;9.10;94.00;;;;;;5032175;28;20025;-74
2021/10/22 05:14:50;;;;;;;13.95;2.50;;;9.10;93.90;;;;;;5031988;28;20025;-72
2021/10/22 05:17:16;;;;;;;21.90;3.10;;;9.10;93.90;;;;;;5032038;28;20098;-75
2021/10/22 05:19:42;;;;;;;16.92;2.80;;;9.10;93.80;;;;;;5030698;28;20132;-75
2021/10/22 05:22:08;;;;;;;10.23;2.88;;;9.10;93.70;;;;;;5032371;28;20466;-75
2021/10/22 05:24:34;;;;;;;19.50;2.88;;;9.20;93.80;;;;;;5031960;28;20029;-72
2021/10/22 05:26:59;;;;;;;16.80;3.25;;;9.20;93.70;;;;;;5031897;28;20541;-73
2021/10/22 05:29:25;;;;;;;11.88;2.72;;;9.20;93.60;;;;;;5035151;28;20041;-74
2021/10/22 05:31:50;;;;;;;15.63;2.45;;;9.20;93.60;;;;;;5052044;28;20082;-72
2021/10/22 05:34:16;;;;;;;12.77;2.67;;;9.20;93.50;;;;;;5051726;28;20025;-74
2021/10/22 05:36:42;;;;;;;21.10;3.28;;;9.10;93.50;;;;;;5050916;28;20040;-73
2021/10/22 05:39:07;;;;;;;20.33;2.60;;;9.10;93.50;;;;;;5051697;28;20489;-73
2021/10/22 05:41:33;;;;;;;18.52;3.13;;;9.30;94.00;;;;;;5051669;28;20098;-72
2021/10/22 05:43:58;;;;;;;14.00;3.00;;;9.20;93.30;;;;;;5051629;28;20040;-73
2021/10/22 05:46:24;;;;;;;13.52;2.63;;;9.20;93.30;;;;;;5052263;28;20057;-72
2021/10/22 05:48:50;;;;;;;14.57;2.28;;;9.20;93.30;;;;;;5052004;28;20037;-73
2021/10/22 05:51:16;;;;;;;15.00;2.72;;;9.20;93.20;;;;;;5051628;28;20120;-71
2021/10/22 05:53:41;;;;;;;13.90;2.88;;;9.20;93.20;;;;;;5051511;28;20359;-72
2021/10/22 05:56:08;;;;;;;19.23;2.47;;;9.20;93.20;;;;;;5047718;28;20029;-72
2021/10/22 05:58:34;;;;;;;10.88;1.83;;;9.30;93.10;;;;;;5030045;28;20017;-72
2021/10/22 06:00:59;;;;;;;22.73;2.60;;;9.20;93.10;;;;;;5031493;28;20021;-73
2021/10/22 06:03:25;;;;;;;19.90;3.25;;;9.20;92.90;;;;;;5031537;28;20352;-73
2021/10/22 06:05:53;;;;;;;16.17;1.92;;;9.30;92.80;;;;;;5031501;28;20459;-73
2021/10/22 06:08:23;;;;;;;16.08;2.60;;;9.20;92.80;;;;;;5030833;28;20526;-78
2021/10/22 06:10:49;;;;;;;16.15;2.30;;;9.20;92.70;;;;;;5030678;28;20041;-77
2021/10/22 06:13:15;;;;;;;13.32;2.30;;;9.20;92.60;;;;;;5031442;28;20351;-76
2021/10/22 06:15:42;;;;;;;21.38;2.92;;;9.20;92.50;;;;;;5031047;28;20321;-76
2021/10/22 06:18:08;;;;;;;11.45;2.13;;;9.10;92.50;;;;;;5029986;28;20429;-76
2021/10/22 06:20:47;;;;;;;12.48;1.98;;;9.20;92.50;;;;;;5030997;28;20037;-73
2021/10/22 06:25:57;;;;;;;10.35;1.85;;;9.30;92.40;;;;;;5031051;28;20056;-80
2021/10/22 06:28:23;;;;;;;7.22;1.67;;;9.30;92.40;;;;;;5031355;28;20414;-77
2021/10/22 06:30:49;;;;;;;8.82;2.15;;;9.40;92.30;;;;;;5030950;28;20029;-76
2021/10/22 06:33:14;;;;;;;12.23;2.38;;;9.40;92.40;;;;;;5031084;28;20037;-78
2021/10/22 06:35:43;;;;;;;14.18;2.40;;;9.50;92.30;;;;;;5030533;28;20041;-79
2021/10/22 06:38:08;;;;;;;19.17;2.55;;;9.40;92.10;;;;;;5030701;28;20093;-74
2021/10/22 06:40:34;;;;;;;16.23;2.47;;;9.60;92.30;;;;;;5030560;28;20080;-74
2021/10/22 06:43:00;;;;;;;20.60;3.13;;;9.70;92.30;;;;;;5032144;28;20025;-76
2021/10/22 06:45:25;;;;;;;11.43;2.25;;;9.60;92.20;;;;;;5029999;28;20068;-77
2021/10/22 06:47:51;;;;;;;15.00;2.35;;;9.60;92.10;;;;;;5030016;28;20030;-76
2021/10/22 06:50:17;;;;;;;17.88;2.53;;;9.70;92.10;;;;;;5030194;28;20492;-78
2021/10/22 06:52:42;;;;;;;18.40;4.63;;;9.70;92.10;;;;;;5028682;28;20022;-77
2021/10/22 06:55:09;;;;;;;22.95;2.97;;;9.70;92.10;;;;;;5030499;28;20021;-77
2021/10/22 06:57:40;;;;;;;21.40;3.92;;;9.80;92.40;;;;;;5030122;28;20068;-78
2021/10/22 07:00:07;;;;;;;23.17;3.00;;;9.80;92.00;;;;;;5029019;28;20168;-77
2021/10/22 07:02:36;;;;;;;28.70;3.50;;;9.80;92.10;;;;;;5030041;28;20433;-78
2021/10/22 07:05:11;;;;;;;13.68;2.53;;;9.80;92.10;;;;;;5029108;28;20108;-77
2021/10/22 07:07:36;;;;;;;12.15;1.70;;;9.80;92.20;;;;;;5030356;28;20363;-77
2021/10/22 07:10:02;;;;;;;15.10;2.00;;;9.80;92.20;;;;;;5030555;28;20025;-79
2021/10/22 07:12:28;;;;;;;10.57;2.25;;;9.90;92.10;;;;;;5032316;28;20051;-77
2021/10/22 07:14:57;;;;;;;16.30;2.63;;;9.90;92.10;;;;;;5033825;28;20430;-75
2021/10/22 07:17:22;;;;;;;13.13;2.75;;;9.90;92.00;;;;;;5033893;28;20083;-75
2021/10/22 07:19:48;;;;;;;18.23;3.03;;;9.80;92.00;;;;;;5033605;28;20035;-73
2021/10/22 07:22:15;;;;;;;16.77;2.38;;;9.90;92.10;;;;;;5034075;28;20048;-75
2021/10/22 07:24:41;;;;;;;12.95;2.75;;;10.00;91.60;;;;;;5033565;28;20037;-75
2021/10/22 07:27:06;;;;;;;23.92;3.15;;;10.00;91.60;;;;;;5033660;28;20026;-75
2021/10/22 07:29:33;;;;;;;18.38;2.53;;;10.00;91.50;;;;;;5033560;28;20030;-74
2021/10/22 07:31:58;;;;;;;13.68;2.83;;;10.10;91.60;;;;;;5033563;28;20029;-75
2021/10/22 07:34:26;;;;;;;8.70;2.05;;;10.00;91.60;;;;;;5033786;28;20502;-74
2021/10/22 07:36:52;;;;;;;9.85;2.05;;;9.90;92.10;;;;;;5033460;28;20042;-74
2021/10/22 07:39:21;;;;;;;12.95;2.10;;;10.00;91.90;;;;;;5032209;28;20348;-76
2021/10/22 07:41:47;;;;;;;11.48;2.25;;;9.90;92.60;;;;;;5033197;28;20037;-74
2021/10/22 07:44:13;;;;;;;19.05;2.08;;;10.00;92.20;;;;;;5033305;28;20037;-75
2021/10/22 07:46:39;;;;;;;10.55;1.77;;;10.00;92.20;;;;;;5033132;28;20048;-76
2021/10/22 07:49:05;;;;;;;13.30;2.40;;;10.10;92.20;;;;;;5033700;28;20333;-76
2021/10/22 07:51:31;;;;;;;16.75;2.80;;;10.20;92.30;;;;;;5032193;28;20067;-77
2021/10/22 07:53:57;;;;;;;13.48;1.92;;;10.20;92.10;;;;;;5032288;28;20032;-76
2021/10/22 07:56:22;;;;;;;12.43;1.80;;;10.30;92.10;;;;;;5032865;28;20033;-76
2021/10/22 07:58:50;;;;;;;8.52;2.03;;;10.30;92.00;;;;;;5033256;28;20021;-75
2021/10/22 08:01:20;;;;;;;15.55;2.22;;;10.40;92.00;;;;;;5033406;28;20028;-77
2021/10/22 08:03:47;;;;;;;25.73;3.10;;;10.50;92.00;;;;;;5033148;28;20116;-78
2021/10/22 08:06:14;;;;;;;20.83;2.92;;;10.60;91.80;;;;;;5033042;28;20033;-78
2021/10/22 08:08:49;;;;;;;10.82;2.45;;;10.70;91.70;;;;;;5032846;28;20419;-78
2021/10/22 08:11:16;;;;;;;16.27;2.30;;;10.80;91.70;;;;;;5031420;28;20037;-76
2021/10/22 08:13:43;;;;;;;;;;;10.90;91.50;;;;;;5033088;28;20063;-78
2021/10/22 08:16:09;;;;;;;12.23;2.30;;;11.10;91.50;;;;;;5032960;28;19900;-77
2021/10/22 08:18:37;;;;;;;9.15;2.03;;;11.10;91.20;;;;;;5031491;28;20468;-75
2021/10/22 08:21:19;;;;;;;8.95;1.85;;;11.20;91.10;;;;;;5032519;28;20029;-76
2021/10/22 08:23:46;;;;;;;15.27;4.28;;;11.20;91.10;;;;;;5030806;28;20044;-78
2021/10/22 08:26:13;;;;;;;9.75;1.63;;;11.50;90.90;;;;;;5032218;28;20400;-80
2021/10/22 08:28:39;;;;;;;9.05;1.95;;;11.70;90.50;;;;;;5032441;28;20057;-76
2021/10/22 08:31:06;;;;;;;15.48;2.78;;;11.80;90.20;;;;;;5032615;28;20061;-79
2021/10/22 08:33:33;;;;;;;30.42;3.97;;;12.10;90.20;;;;;;5031313;28;20037;-80
2021/10/22 08:35:59;;;;;;;13.30;2.80;;;12.10;90.00;;;;;;5032406;28;20112;-80
2021/10/22 08:38:26;;;;;;;20.15;2.63;;;12.00;90.00;;;;;;5032378;28;20049;-77
2021/10/22 08:40:56;;;;;;;12.55;2.60;;;12.20;90.20;;;;;;5031903;28;20033;-78
2021/10/22 08:43:25;;;;;;;12.35;1.90;;;12.30;90.00;;;;;;5032498;28;20040;-78
2021/10/22 08:45:54;;;;;;;10.50;2.05;;;12.30;89.40;;;;;;5032398;28;20050;-77
2021/10/22 08:48:20;;;;;;;16.50;2.10;;;12.30;88.60;;;;;;5031853;28;20030;-76
2021/10/22 08:50:46;;;;;;;13.73;1.83;;;12.40;88.30;;;;;;5031942;28;20109;-73
2021/10/22 08:53:12;;;;;;;12.05;1.95;;;12.50;87.80;;;;;;5032100;28;20026;-77
2021/10/22 08:55:38;;;;;;;9.38;1.73;;;12.60;87.90;;;;;;5031074;28;20044;-79
2021/10/22 08:58:04;;;;;;;10.10;1.60;;;12.30;88.40;;;;;;5032342;28;20021;-79
2021/10/22 09:00:29;;;;;;;11.38;2.10;;;12.40;88.00;;;;;;5031741;28;20094;-77
2021/10/22 09:03:08;;;;;;;14.43;1.90;;;12.50;87.20;;;;;;5031730;28;20360;-75
2021/10/22 09:05:35;;;;;;;15.10;2.10;;;12.60;87.40;;;;;;5031798;28;20128;-77
2021/10/22 09:08:05;;;;;;;8.85;1.85;;;12.50;87.30;;;;;;5031559;28;20037;-75
2021/10/22 09:10:36;;;;;;;12.63;1.70;;;12.50;86.60;;;;;;5030423;28;20069;-75
2021/10/22 09:13:07;;;;;;;14.55;1.63;;;13.30;85.50;;;;;;5031957;28;20447;-77
2021/10/22 09:15:38;;;;;;;10.90;1.52;;;13.80;84.20;;;;;;5031505;28;20060;-74
2021/10/22 09:18:20;;;;;;;10.80;2.00;;;14.40;83.60;;;;;;5031690;28;20068;-78
2021/10/22 09:21:01;;;;;;;7.63;1.98;;;14.80;81.10;;;;;;5031561;28;20064;-79
2021/10/22 09:23:32;;;;;;;10.40;2.17;;;15.00;81.20;;;;;;5031392;28;20033;-80
2021/10/22 09:26:20;;;;;;;12.15;3.03;;;14.20;79.40;;;;;;5030362;28;20034;-77
2021/10/22 09:28:47;;;;;;;11.07;2.17;;;14.20;81.90;;;;;;5031149;28;20103;-78
2021/10/22 09:31:21;;;;;;;9.88;1.63;;;14.30;81.70;;;;;;5031590;28;20033;-78
2021/10/22 09:33:59;;;;;;;8.75;2.28;;;14.00;81.50;;;;;;5030514;28;20435;-80
2021/10/22 09:36:41;;;;;;;14.45;2.22;;;13.70;81.10;;;;;;5031238;28;20041;-76
2021/10/22 09:39:15;;;;;;;14.55;1.70;;;13.70;82.10;;;;;;5031272;28;20052;-80
2021/10/22 09:41:57;;;;;;;5.88;1.73;;;13.10;82.40;;;;;;5030679;28;20057;-75
2021/10/22 09:44:27;;;;;;;9.43;1.73;;;13.20;82.90;;;;;;5030979;28;20121;-79
2021/10/22 09:47:15;;;;;;;8.90;1.73;;;12.90;82.90;;;;;;5030920;28;20055;-76
2021/10/22 09:49:45;;;;;;;12.98;1.95;;;12.90;83.50;;;;;;5029634;28;20128;-80
2021/10/22 09:52:23;;;;;;;12.50;2.72;;;13.00;83.90;;;;;;5030054;28;20041;-74
2021/10/22 09:55:07;;;;;;;11.85;2.15;;;12.90;83.60;;;;;;5030697;28;20030;-74
2021/10/22 09:57:32;;;;;;;13.32;2.20;;;12.80;83.90;;;;;;5030432;28;20095;-74
2021/10/22 10:00:07;;;;;;;17.75;2.17;;;12.70;84.10;;;;;;5030659;28;20060;-72
2021/10/22 10:02:36;;;;;;;12.77;2.00;;;12.50;84.30;;;;;;5030178;28;20045;-75
2021/10/22 10:05:02;;;;;;;;;;;12.40;84.60;;;;;;5029751;28;20035;-75
2021/10/22 10:07:28;;;;;;;7.97;1.33;;;12.40;84.90;;;;;;5030363;28;19920;-75
2021/10/22 10:09:54;;;;;;;11.55;1.95;;;12.60;85.20;;;;;;5030873;28;20049;-76
2021/10/22 10:12:21;;;;;;;11.38;2.22;;;12.60;84.90;;;;;;5030461;28;20065;-77
2021/10/22 10:14:47;;;;;;;11.18;2.33;;;12.50;84.80;;;;;;5030208;28;20108;-71
2021/10/22 10:17:13;;;;;;;9.48;1.98;;;12.40;85.10;;;;;;5030495;28;20415;-75
2021/10/22 10:19:45;;;;;;;8.57;1.70;;;12.50;85.20;;;;;;5030436;28;20026;-76
2021/10/22 10:22:17;;;;;;;7.85;2.13;;;12.40;85.00;;;;;;5030638;28;20044;-77
2021/10/22 10:24:46;;;;;;;7.78;1.83;;;12.40;85.10;;;;;;5030378;28;20152;-77
2021/10/22 10:27:15;;;;;;;7.18;1.75;;;12.40;85.50;;;;;;5030510;28;20025;-75
2021/10/22 10:29:43;;;;;;;14.25;1.88;;;12.30;85.80;;;;;;5031415;28;20700;-76
2021/10/22 10:32:10;;;;;;;;;;;12.30;86.00;;;;;;5030780;28;20029;-77
2021/10/22 10:34:49;;;;;;;12.85;2.38;;;12.20;86.30;;;;;;5030364;28;19927;-76
2021/10/22 10:37:30;;;;;;;11.05;1.67;;;12.20;87.10;;;;;;5030886;28;20009;-77
2021/10/22 10:39:58;;;;;;;9.55;2.08;;;12.10;87.30;;;;;;5030405;28;20083;-77
2021/10/22 10:42:26;;;;;;;12.13;2.13;;;12.30;87.40;;;;;;5030223;28;20073;-77
2021/10/22 10:44:56;;;;;;;10.23;2.00;;;12.50;86.60;;;;;;5028965;28;20187;-76
2021/10/22 10:47:28;;;;;;;15.35;1.77;;;12.60;86.60;;;;;;5034282;28;20306;-77
2021/10/22 10:49:54;;;;;;;11.23;2.08;;;12.70;86.40;;;;;;5034135;28;20033;-78
2021/10/22 10:52:38;;;;;;;15.18;2.63;;;12.50;87.30;;;;;;5034609;28;20033;-77
2021/10/22 10:58:07;;;;;;;6.85;1.90;;;12.60;88.90;;;;;;5034221;28;20021;-71
2021/10/22 11:00:37;;;;;;;8.18;2.15;;;12.40;89.80;;;;;;5033966;28;20482;-70
2021/10/22 11:03:05;;;;;;;9.90;1.75;;;12.10;90.50;;;;;;5032711;28;20041;-71
2021/10/22 11:05:43;;;;;;;6.20;1.45;;;12.00;90.20;;;;;;5033934;28;20124;-71
2021/10/22 11:08:13;;;;;;;;;;;12.00;90.00;;;;;;5034434;28;20087;-72
2021/10/22 11:10:56;;;;;;;11.05;2.25;;;11.90;90.20;;;;;;5033544;28;19975;-72
2021/10/22 11:13:23;;;;;;;15.48;1.98;;;11.90;90.10;;;;;;5040872;28;20021;-75
2021/10/22 11:15:50;;;;;;;11.40;2.03;;;11.90;90.50;;;;;;5054021;28;20039;-76
2021/10/22 11:18:18;;;;;;;8.15;1.92;;;11.90;90.50;;;;;;5053633;28;20459;-76
2021/10/22 11:20:44;;;;;;;;;;;11.90;91.00;;;;;;5053013;28;20459;-76
2021/10/22 11:23:13;;;;;;;6.93;1.50;;;11.90;91.00;;;;;;5053434;28;19958;-76
2021/10/22 11:25:40;;;;;;;18.58;1.95;;;11.90;91.30;;;;;;5053612;28;20021;-76
2021/10/22 11:28:12;;;;;;;10.40;2.08;;;11.90;91.60;;;;;;5054006;28;20033;-77
2021/10/22 11:30:39;;;;;;;12.75;2.45;;;11.90;91.50;;;;;;5053377;28;20458;-76
2021/10/22 11:33:04;;;;;;;8.85;1.85;;;11.90;92.00;;;;;;5053538;28;20097;-76
2021/10/22 11:35:31;;;;;;;11.90;1.58;;;11.80;92.30;;;;;;5053485;28;20064;-77
2021/10/22 11:38:05;;;;;;;14.00;2.15;;;11.60;92.60;;;;;;5052147;28;20055;-71
2021/10/22 11:40:31;;;;;;;12.48;2.00;;;11.60;93.00;;;;;;5053691;28;20036;-76
2021/10/22 11:43:10;;;;;;;10.68;1.77;;;11.40;93.30;;;;;;5054548;28;20029;-77
2021/10/22 11:45:36;;;;;;;10.85;2.08;;;11.50;93.70;;;;;;5053670;28;20041;-76
2021/10/22 11:48:01;;;;;;;8.50;1.95;;;11.60;93.90;;;;;;5053600;28;20086;-76
2021/10/22 11:50:34;;;;;;;8.20;1.75;;;11.60;94.10;;;;;;5053100;28;20919;-73
2021/10/22 11:53:10;;;;;;;18.73;2.55;;;11.70;94.00;;;;;;5052696;28;20459;-73
2021/10/22 11:55:37;;;;;;;9.50;1.65;;;11.80;94.10;;;;;;5053073;28;20036;-73
2021/10/22 11:58:05;;;;;;;6.75;1.75;;;11.80;94.10;;;;;;5051393;28;20021;-74
2021/10/22 12:00:31;;;;;;;10.65;2.05;;;11.80;94.20;;;;;;5051925;28;20036;-74
2021/10/22 12:02:57;;;;;;;10.32;1.75;;;11.70;94.40;;;;;;5053034;28;20025;-78
2021/10/22 12:05:22;;;;;;;11.48;2.20;;;11.60;94.40;;;;;;5052760;28;20029;-78
2021/10/22 12:07:50;;;;;;;12.70;1.95;;;11.60;94.80;;;;;;5052651;28;20085;-78
2021/10/22 12:10:16;;;;;;;9.82;1.75;;;11.70;94.90;;;;;;5052387;28;20590;-76
2021/10/22 12:12:48;;;;;;;11.82;2.78;;;11.70;94.70;;;;;;5052639;28;20040;-77
2021/10/22 12:15:28;;;;;;;8.85;2.20;;;11.60;94.90;;;;;;5052638;28;20653;-78
2021/10/22 12:18:01;;;;;;;14.82;2.67;;;11.70;95.10;;;;;;5052437;28;20108;-76
2021/10/22 12:20:28;;;;;;;13.93;1.83;;;11.70;95.20;;;;;;5051299;28;20087;-76
2021/10/22 12:22:59;;;;;;;7.50;1.83;;;11.60;95.20;;;;;;5052645;28;20024;-77
2021/10/22 12:25:31;;;;;;;7.88;1.75;;;11.70;95.70;;;;;;5052948;28;20013;-79
2021/10/22 12:28:01;;;;;;;17.50;2.22;;;11.60;95.40;;;;;;5051440;28;20049;-76
2021/10/22 12:30:29;;;;;;;8.18;2.00;;;11.70;95.30;;;;;;5052457;28;20033;-79
2021/10/22 12:33:05;;;;;;;11.30;2.10;;;11.50;95.50;;;;;;5051372;28;20029;-78
2021/10/22 12:35:34;;;;;;;16.55;2.08;;;11.40;95.70;;;;;;5052125;28;20511;-79
2021/10/22 12:38:05;;;;;;;7.53;1.67;;;11.30;96.10;;;;;;5052255;28;20261;-77
2021/10/22 12:40:39;;;;;;;12.25;1.95;;;11.40;96.20;;;;;;5052150;28;20035;-80
2021/10/22 12:43:08;;;;;;;9.20;2.10;;;11.20;96.60;;;;;;5052834;28;20393;-77
2021/10/22 12:45:39;;;;;;;11.27;2.42;;;11.40;96.80;;;;;;5052014;28;20463;-79
2021/10/22 12:48:07;;;;;;;8.02;2.10;;;11.30;97.10;;;;;;5051983;28;20060;-79
2021/10/22 12:50:35;;;;;;;7.03;1.85;;;11.10;97.60;;;;;;5051762;28;20087;-77
2021/10/22 12:53:09;;;;;;;8.95;1.90;;;11.20;97.70;;;;;;5050649;28;20029;-80